sensor_id;sensor_type;location;lat;lon;timestamp;pressure;altitude;pressure_sealevel;temperature;humidity
72961;BME280;61141;46.204;19.774;2023-01-15T00:01:35;100971.53;;;4.01;100.00
72961;BME280;61141;46.204;19.774;2023-01-15T00:04:38;100972.44;;;4.19;100.00
72961;BME280;61141;46.204;19.774;2023-01-15T00:07:41;100970.16;;;4.12;100.00
72961;BME280;61141;46.204;19.774;2023-01-15T00:10:48;100972.87;;;4.12;100.00
72961;BME280;61141;46.204;19.774;2023-01-15T00:13:51;100971.66;;;3.96;100.00
72961;BME280;61141;46.204;19.774;2023-01-15T00:16:54;100965.16;;;4.06;100.00
72961;BME280;61141;46.204;19.774;2023-01-15T00:19:57;100977.91;;;4.28;100.00
72961;BME280;61141;46.204;19.774;2023-01-15T00:23:00;100974.38;;;4.27;100.00
72961;BME280;61141;46.204;19.774;2023-01-15T00:26:02;100975.09;;;4.41;100.00
72961;BME280;61141;46.204;19.774;2023-01-15T00:29:25;100980.25;;;4.21;100.00
72961;BME280;61141;46.204;19.774;2023-01-15T00:32:27;100967.44;;;4.12;100.00
72961;BME280;61141;46.204;19.774;2023-01-15T00:35:31;100972.16;;;4.29;100.00
72961;BME280;61141;46.204;19.774;2023-01-15T00:38:33;100970.09;;;4.35;100.00
72961;BME280;61141;46.204;19.774;2023-01-15T00:41:37;100965.87;;;4.51;100.00
72961;BME280;61141;46.204;19.774;2023-01-15T00:44:39;100967.81;;;4.28;100.00
72961;BME280;61141;46.204;19.774;2023-01-15T00:47:43;100972.78;;;4.26;100.00
72961;BME280;61141;46.204;19.774;2023-01-15T00:50:47;100966.06;;;4.24;100.00
72961;BME280;61141;46.204;19.774;2023-01-15T00:53:50;100966.25;;;4.27;100.00
72961;BME280;61141;46.204;19.774;2023-01-15T00:56:53;100963.44;;;4.41;100.00
72961;BME280;61141;46.204;19.774;2023-01-15T00:59:56;100956.69;;;4.30;100.00
72961;BME280;61141;46.204;19.774;2023-01-15T01:02:58;100945.84;;;4.30;100.00
72961;BME280;61141;46.204;19.774;2023-01-15T01:06:04;100948.94;;;4.14;100.00
72961;BME280;61141;46.204;19.774;2023-01-15T01:09:08;100950.22;;;4.17;100.00
72961;BME280;61141;46.204;19.774;2023-01-15T01:12:11;100943.72;;;4.18;100.00
72961;BME280;61141;46.204;19.774;2023-01-15T01:15:14;100947.94;;;4.02;100.00
72961;BME280;61141;46.204;19.774;2023-01-15T01:18:17;100938.72;;;4.11;100.00
72961;BME280;61141;46.204;19.774;2023-01-15T01:21:20;100937.75;;;4.07;100.00
72961;BME280;61141;46.204;19.774;2023-01-15T01:24:24;100938.91;;;4.15;100.00
72961;BME280;61141;46.204;19.774;2023-01-15T01:27:26;100937.00;;;4.15;100.00
72961;BME280;61141;46.204;19.774;2023-01-15T01:30:36;100937.12;;;4.10;100.00
72961;BME280;61141;46.204;19.774;2023-01-15T01:33:39;100924.53;;;4.14;100.00
72961;BME280;61141;46.204;19.774;2023-01-15T01:36:43;100925.06;;;4.17;100.00
72961;BME280;61141;46.204;19.774;2023-01-15T01:39:45;100917.53;;;4.13;100.00
72961;BME280;61141;46.204;19.774;2023-01-15T01:42:49;100909.22;;;4.10;100.00
72961;BME280;61141;46.204;19.774;2023-01-15T01:45:52;100908.16;;;4.20;100.00
72961;BME280;61141;46.204;19.774;2023-01-15T01:49:15;100905.91;;;4.13;100.00
72961;BME280;61141;46.204;19.774;2023-01-15T01:52:22;100897.75;;;4.13;100.00
72961;BME280;61141;46.204;19.774;2023-01-15T01:55:27;100891.34;;;4.09;100.00
72961;BME280;61141;46.204;19.774;2023-01-15T01:58:31;100882.44;;;4.08;100.00
72961;BME280;61141;46.204;19.774;2023-01-15T02:01:35;100882.50;;;4.26;100.00
72961;BME280;61141;46.204;19.774;2023-01-15T02:04:39;100883.25;;;4.18;100.00
72961;BME280;61141;46.204;19.774;2023-01-15T02:07:42;100878.78;;;4.13;100.00
72961;BME280;61141;46.204;19.774;2023-01-15T02:10:49;100892.00;;;4.14;100.00
72961;BME280;61141;46.204;19.774;2023-01-15T02:14:15;100892.19;;;4.18;100.00
72961;BME280;61141;46.204;19.774;2023-01-15T02:20:57;100886.41;;;4.02;100.00
72961;BME280;61141;46.204;19.774;2023-01-15T02:24:09;100882.59;;;4.12;100.00
72961;BME280;61141;46.204;19.774;2023-01-15T02:27:21;100873.84;;;4.15;100.00
72961;BME280;61141;46.204;19.774;2023-01-15T02:30:34;100868.59;;;4.19;100.00
72961;BME280;61141;46.204;19.774;2023-01-15T02:33:57;100873.84;;;4.15;100.00
72961;BME280;61141;46.204;19.774;2023-01-15T02:37:05;100871.94;;;4.15;100.00
72961;BME280;61141;46.204;19.774;2023-01-15T02:40:11;100874.81;;;4.19;100.00
72961;BME280;61141;46.204;19.774;2023-01-15T02:43:18;100876.06;;;4.13;100.00
72961;BME280;61141;46.204;19.774;2023-01-15T02:46:26;100864.44;;;4.12;100.00
72961;BME280;61141;46.204;19.774;2023-01-15T02:49:32;100867.13;;;4.12;100.00
72961;BME280;61141;46.204;19.774;2023-01-15T02:52:44;100865.38;;;4.08;100.00
72961;BME280;61141;46.204;19.774;2023-01-15T02:55:53;100853.09;;;4.10;100.00
72961;BME280;61141;46.204;19.774;2023-01-15T02:59:03;100842.03;;;3.98;100.00
72961;BME280;61141;46.204;19.774;2023-01-15T03:02:30;100845.12;;;4.05;100.00
72961;BME280;61141;46.204;19.774;2023-01-15T03:05:39;100848.31;;;4.07;100.00
72961;BME280;61141;46.204;19.774;2023-01-15T03:08:43;100848.69;;;4.32;100.00
72961;BME280;61141;46.204;19.774;2023-01-15T03:12:16;100841.50;;;4.19;100.00
72961;BME280;61141;46.204;19.774;2023-01-15T03:15:24;100842.44;;;4.23;100.00
72961;BME280;61141;46.204;19.774;2023-01-15T03:18:51;100827.72;;;4.06;100.00
72961;BME280;61141;46.204;19.774;2023-01-15T03:22:18;100841.63;;;4.13;100.00
72961;BME280;61141;46.204;19.774;2023-01-15T03:25:25;100833.78;;;4.03;100.00
72961;BME280;61141;46.204;19.774;2023-01-15T03:28:34;100827.97;;;4.27;100.00
72961;BME280;61141;46.204;19.774;2023-01-15T03:31:39;100829.38;;;4.16;100.00
72961;BME280;61141;46.204;19.774;2023-01-15T03:37:49;100827.75;;;4.15;100.00
72961;BME280;61141;46.204;19.774;2023-01-15T03:40:59;100816.44;;;4.13;100.00
72961;BME280;61141;46.204;19.774;2023-01-15T03:47:34;100812.28;;;4.15;100.00
72961;BME280;61141;46.204;19.774;2023-01-15T03:50:57;100811.03;;;4.22;100.00
72961;BME280;61141;46.204;19.774;2023-01-15T03:54:10;100793.78;;;4.09;100.00
72961;BME280;61141;46.204;19.774;2023-01-15T03:57:27;100791.56;;;4.11;100.00
72961;BME280;61141;46.204;19.774;2023-01-15T04:00:37;100792.78;;;3.96;100.00
72961;BME280;61141;46.204;19.774;2023-01-15T04:03:45;100790.25;;;4.00;100.00
72961;BME280;61141;46.204;19.774;2023-01-15T04:06:50;100781.47;;;3.94;100.00
72961;BME280;61141;46.204;19.774;2023-01-15T04:09:53;100782.28;;;3.95;100.00
72961;BME280;61141;46.204;19.774;2023-01-15T04:12:56;100774.50;;;4.10;100.00
72961;BME280;61141;46.204;19.774;2023-01-15T04:15:59;100776.50;;;3.88;100.00
72961;BME280;61141;46.204;19.774;2023-01-15T04:19:02;100767.91;;;3.94;100.00
72961;BME280;61141;46.204;19.774;2023-01-15T04:22:08;100774.16;;;4.03;100.00
72961;BME280;61141;46.204;19.774;2023-01-15T04:25:11;100780.22;;;4.00;100.00
72961;BME280;61141;46.204;19.774;2023-01-15T04:28:14;100776.72;;;4.08;100.00
72961;BME280;61141;46.204;19.774;2023-01-15T04:31:17;100775.09;;;3.99;100.00
72961;BME280;61141;46.204;19.774;2023-01-15T04:34:20;100778.94;;;4.06;100.00
72961;BME280;61141;46.204;19.774;2023-01-15T04:37:23;100765.22;;;3.94;100.00
72961;BME280;61141;46.204;19.774;2023-01-15T04:40:27;100774.81;;;4.18;100.00
72961;BME280;61141;46.204;19.774;2023-01-15T04:43:48;100766.03;;;4.12;100.00
72961;BME280;61141;46.204;19.774;2023-01-15T04:47:09;100757.28;;;4.15;100.00
72961;BME280;61141;46.204;19.774;2023-01-15T04:50:12;100758.25;;;4.19;100.00
72961;BME280;61141;46.204;19.774;2023-01-15T04:53:16;100758.09;;;4.24;100.00
72961;BME280;61141;46.204;19.774;2023-01-15T04:56:19;100755.69;;;4.05;100.00
72961;BME280;61141;46.204;19.774;2023-01-15T04:59:25;100765.75;;;4.13;100.00
72961;BME280;61141;46.204;19.774;2023-01-15T05:02:28;100757.75;;;4.08;100.00
72961;BME280;61141;46.204;19.774;2023-01-15T05:05:31;100744.84;;;4.05;100.00
72961;BME280;61141;46.204;19.774;2023-01-15T05:08:34;100749.44;;;4.05;100.00
72961;BME280;61141;46.204;19.774;2023-01-15T05:11:38;100747.69;;;4.00;100.00
72961;BME280;61141;46.204;19.774;2023-01-15T05:14:41;100741.63;;;3.95;100.00
72961;BME280;61141;46.204;19.774;2023-01-15T05:17:44;100743.81;;;3.84;100.00
72961;BME280;61141;46.204;19.774;2023-01-15T05:20:47;100741.31;;;3.96;100.00
72961;BME280;61141;46.204;19.774;2023-01-15T05:23:52;100739.25;;;4.02;100.00
72961;BME280;61141;46.204;19.774;2023-01-15T05:26:55;100740.31;;;3.92;100.00
72961;BME280;61141;46.204;19.774;2023-01-15T05:30:00;100731.69;;;3.82;100.00
72961;BME280;61141;46.204;19.774;2023-01-15T05:33:03;100736.81;;;3.83;100.00
72961;BME280;61141;46.204;19.774;2023-01-15T05:36:11;100729.31;;;3.80;100.00
72961;BME280;61141;46.204;19.774;2023-01-15T05:39:14;100734.41;;;3.82;100.00
72961;BME280;61141;46.204;19.774;2023-01-15T05:42:18;100739.38;;;3.97;100.00
72961;BME280;61141;46.204;19.774;2023-01-15T05:45:20;100742.72;;;3.94;100.00
72961;BME280;61141;46.204;19.774;2023-01-15T05:48:23;100738.09;;;3.86;100.00
72961;BME280;61141;46.204;19.774;2023-01-15T05:51:26;100733.59;;;3.81;100.00
72961;BME280;61141;46.204;19.774;2023-01-15T05:54:32;100739.81;;;3.82;100.00
72961;BME280;61141;46.204;19.774;2023-01-15T05:57:35;100739.00;;;3.81;100.00
72961;BME280;61141;46.204;19.774;2023-01-15T06:00:38;100738.25;;;3.89;100.00
72961;BME280;61141;46.204;19.774;2023-01-15T06:03:41;100727.91;;;3.91;100.00
72961;BME280;61141;46.204;19.774;2023-01-15T06:06:44;100740.97;;;3.98;100.00
72961;BME280;61141;46.204;19.774;2023-01-15T06:09:47;100737.31;;;3.94;100.00
72961;BME280;61141;46.204;19.774;2023-01-15T06:12:50;100735.69;;;3.93;100.00
72961;BME280;61141;46.204;19.774;2023-01-15T06:15:53;100744.16;;;3.91;100.00
72961;BME280;61141;46.204;19.774;2023-01-15T06:19:00;100734.25;;;3.87;100.00
72961;BME280;61141;46.204;19.774;2023-01-15T06:22:03;100725.00;;;3.88;100.00
72961;BME280;61141;46.204;19.774;2023-01-15T06:25:06;100734.28;;;3.95;100.00
72961;BME280;61141;46.204;19.774;2023-01-15T06:28:11;100730.12;;;3.89;100.00
72961;BME280;61141;46.204;19.774;2023-01-15T06:31:18;100726.00;;;4.00;100.00
72961;BME280;61141;46.204;19.774;2023-01-15T06:34:21;100711.66;;;3.91;100.00
72961;BME280;61141;46.204;19.774;2023-01-15T06:37:24;100708.31;;;4.03;100.00
72961;BME280;61141;46.204;19.774;2023-01-15T06:40:28;100705.63;;;4.03;100.00
72961;BME280;61141;46.204;19.774;2023-01-15T06:43:30;100711.03;;;4.11;100.00
72961;BME280;61141;46.204;19.774;2023-01-15T06:46:52;100698.75;;;4.40;100.00
72961;BME280;61141;46.204;19.774;2023-01-15T06:50:14;100700.19;;;4.29;100.00
72961;BME280;61141;46.204;19.774;2023-01-15T06:53:18;100696.06;;;4.31;100.00
72961;BME280;61141;46.204;19.774;2023-01-15T06:56:21;100695.88;;;4.45;100.00
72961;BME280;61141;46.204;19.774;2023-01-15T06:59:24;100688.72;;;4.40;100.00
72961;BME280;61141;46.204;19.774;2023-01-15T07:02:26;100694.16;;;4.49;100.00
72961;BME280;61141;46.204;19.774;2023-01-15T07:05:30;100686.81;;;4.58;100.00
72961;BME280;61141;46.204;19.774;2023-01-15T07:08:32;100679.12;;;4.60;100.00
72961;BME280;61141;46.204;19.774;2023-01-15T07:11:36;100684.91;;;4.50;100.00
72961;BME280;61141;46.204;19.774;2023-01-15T07:14:51;100674.16;;;4.79;100.00
72961;BME280;61141;46.204;19.774;2023-01-15T07:17:55;100669.38;;;4.76;100.00
72961;BME280;61141;46.204;19.774;2023-01-15T07:20:59;100671.59;;;4.83;100.00
72961;BME280;61141;46.204;19.774;2023-01-15T07:24:03;100678.78;;;4.79;100.00
72961;BME280;61141;46.204;19.774;2023-01-15T07:27:05;100670.19;;;4.68;100.00
72961;BME280;61141;46.204;19.774;2023-01-15T07:30:10;100678.41;;;4.97;100.00
72961;BME280;61141;46.204;19.774;2023-01-15T07:33:14;100671.69;;;5.03;100.00
72961;BME280;61141;46.204;19.774;2023-01-15T07:36:17;100669.75;;;5.12;100.00
72961;BME280;61141;46.204;19.774;2023-01-15T07:39:20;100655.09;;;5.05;100.00
72961;BME280;61141;46.204;19.774;2023-01-15T07:42:23;100661.97;;;5.11;100.00
72961;BME280;61141;46.204;19.774;2023-01-15T07:45:44;100651.88;;;5.11;100.00
72961;BME280;61141;46.204;19.774;2023-01-15T07:49:10;100650.53;;;5.26;100.00
72961;BME280;61141;46.204;19.774;2023-01-15T07:52:32;100650.37;;;5.22;100.00
72961;BME280;61141;46.204;19.774;2023-01-15T07:55:35;100647.88;;;5.09;100.00
72961;BME280;61141;46.204;19.774;2023-01-15T07:58:38;100637.69;;;4.97;100.00
72961;BME280;61141;46.204;19.774;2023-01-15T08:01:41;100636.19;;;5.17;100.00
72961;BME280;61141;46.204;19.774;2023-01-15T08:04:44;100642.94;;;5.11;100.00
72961;BME280;61141;46.204;19.774;2023-01-15T08:07:48;100630.72;;;4.88;100.00
72961;BME280;61141;46.204;19.774;2023-01-15T08:10:53;100629.31;;;5.19;100.00
72961;BME280;61141;46.204;19.774;2023-01-15T08:14:16;100634.47;;;5.12;100.00
72961;BME280;61141;46.204;19.774;2023-01-15T08:17:44;100627.47;;;5.03;100.00
72961;BME280;61141;46.204;19.774;2023-01-15T08:20:49;100621.34;;;5.14;100.00
72961;BME280;61141;46.204;19.774;2023-01-15T08:23:53;100611.06;;;4.99;100.00
72961;BME280;61141;46.204;19.774;2023-01-15T08:26:56;100610.03;;;5.12;100.00
72961;BME280;61141;46.204;19.774;2023-01-15T08:30:02;100600.97;;;5.38;100.00
72961;BME280;61141;46.204;19.774;2023-01-15T08:33:06;100604.59;;;5.42;100.00
72961;BME280;61141;46.204;19.774;2023-01-15T08:36:09;100605.25;;;5.39;100.00
72961;BME280;61141;46.204;19.774;2023-01-15T08:39:11;100602.22;;;5.40;100.00
72961;BME280;61141;46.204;19.774;2023-01-15T08:42:14;100580.50;;;5.40;100.00
72961;BME280;61141;46.204;19.774;2023-01-15T08:45:17;100599.94;;;5.51;100.00
72961;BME280;61141;46.204;19.774;2023-01-15T08:48:20;100603.66;;;5.67;100.00
72961;BME280;61141;46.204;19.774;2023-01-15T08:51:23;100610.53;;;5.64;100.00
72961;BME280;61141;46.204;19.774;2023-01-15T08:54:26;100610.94;;;5.75;100.00
72961;BME280;61141;46.204;19.774;2023-01-15T08:57:49;100608.44;;;5.70;100.00
72961;BME280;61141;46.204;19.774;2023-01-15T09:01:13;100606.87;;;5.89;100.00
72961;BME280;61141;46.204;19.774;2023-01-15T09:04:19;100601.69;;;5.97;100.00
72961;BME280;61141;46.204;19.774;2023-01-15T09:07:23;100591.62;;;5.97;100.00
72961;BME280;61141;46.204;19.774;2023-01-15T09:10:26;100588.78;;;6.14;100.00
72961;BME280;61141;46.204;19.774;2023-01-15T09:13:30;100580.88;;;6.21;100.00
72961;BME280;61141;46.204;19.774;2023-01-15T09:16:34;100585.03;;;6.19;100.00
72961;BME280;61141;46.204;19.774;2023-01-15T09:19:37;100584.34;;;6.42;100.00
72961;BME280;61141;46.204;19.774;2023-01-15T09:22:40;100575.56;;;6.70;100.00
72961;BME280;61141;46.204;19.774;2023-01-15T09:25:53;100565.31;;;6.42;100.00
72961;BME280;61141;46.204;19.774;2023-01-15T09:28:57;100552.16;;;6.44;100.00
72961;BME280;61141;46.204;19.774;2023-01-15T09:32:01;100558.22;;;6.74;99.40
72961;BME280;61141;46.204;19.774;2023-01-15T09:35:04;100556.16;;;6.71;99.91
72961;BME280;61141;46.204;19.774;2023-01-15T09:38:11;100557.09;;;6.75;99.57
72961;BME280;61141;46.204;19.774;2023-01-15T09:41:15;100550.19;;;6.78;99.31
72961;BME280;61141;46.204;19.774;2023-01-15T09:48:32;100536.59;;;6.90;97.38
72961;BME280;61141;46.204;19.774;2023-01-15T09:55:08;100530.91;;;7.07;95.75
72961;BME280;61141;46.204;19.774;2023-01-15T09:58:16;100527.84;;;7.08;95.12
72961;BME280;61141;46.204;19.774;2023-01-15T10:01:29;100509.03;;;7.03;94.43
72961;BME280;61141;46.204;19.774;2023-01-15T10:04:40;100502.53;;;6.84;95.03
72961;BME280;61141;46.204;19.774;2023-01-15T10:08:01;100503.91;;;6.90;95.53
72961;BME280;61141;46.204;19.774;2023-01-15T10:14:33;100491.19;;;7.06;96.33
72961;BME280;61141;46.204;19.774;2023-01-15T10:17:41;100482.91;;;7.02;94.25
72961;BME280;61141;46.204;19.774;2023-01-15T10:24:06;100471.91;;;6.87;94.50
72961;BME280;61141;46.204;19.774;2023-01-15T10:27:19;100469.41;;;7.06;94.18
72961;BME280;61141;46.204;19.774;2023-01-15T10:30:38;100459.50;;;7.14;93.63
72961;BME280;61141;46.204;19.774;2023-01-15T10:37:02;100438.88;;;7.00;93.79
72961;BME280;61141;46.204;19.774;2023-01-15T10:46:35;100428.75;;;7.13;94.13
72961;BME280;61141;46.204;19.774;2023-01-15T10:49:41;100428.75;;;7.25;93.44
72961;BME280;61141;46.204;19.774;2023-01-15T10:52:49;100431.09;;;7.27;92.95
72961;BME280;61141;46.204;19.774;2023-01-15T10:56:30;100422.59;;;7.28;93.07
72961;BME280;61141;46.204;19.774;2023-01-15T10:59:43;100425.31;;;7.28;93.46
72961;BME280;61141;46.204;19.774;2023-01-15T11:03:00;100420.53;;;7.37;94.37
72961;BME280;61141;46.204;19.774;2023-01-15T11:06:15;100413.22;;;7.53;93.79
72961;BME280;61141;46.204;19.774;2023-01-15T11:09:23;100405.91;;;7.57;92.96
72961;BME280;61141;46.204;19.774;2023-01-15T11:12:33;100397.16;;;7.80;92.16
72961;BME280;61141;46.204;19.774;2023-01-15T11:15:54;100394.44;;;7.80;92.26
72961;BME280;61141;46.204;19.774;2023-01-15T11:19:37;100376.31;;;7.87;91.84
72961;BME280;61141;46.204;19.774;2023-01-15T11:22:45;100366.37;;;7.79;93.02
72961;BME280;61141;46.204;19.774;2023-01-15T11:25:57;100364.97;;;7.85;92.82
72961;BME280;61141;46.204;19.774;2023-01-15T11:29:13;100353.66;;;7.99;93.23
72961;BME280;61141;46.204;19.774;2023-01-15T11:32:26;100344.94;;;8.09;91.60
72961;BME280;61141;46.204;19.774;2023-01-15T11:35:31;100342.94;;;8.06;90.55
72961;BME280;61141;46.204;19.774;2023-01-15T11:38:44;100351.81;;;8.03;90.65
72961;BME280;61141;46.204;19.774;2023-01-15T11:41:48;100338.44;;;8.13;89.22
72961;BME280;61141;46.204;19.774;2023-01-15T11:45:18;100339.50;;;8.09;88.14
72961;BME280;61141;46.204;19.774;2023-01-15T11:48:45;100335.44;;;8.03;88.44
72961;BME280;61141;46.204;19.774;2023-01-15T11:52:09;100339.28;;;8.17;87.17
72961;BME280;61141;46.204;19.774;2023-01-15T11:55:21;100328.41;;;8.02;88.09
72961;BME280;61141;46.204;19.774;2023-01-15T11:58:32;100337.00;;;8.04;86.91
72961;BME280;61141;46.204;19.774;2023-01-15T12:01:38;100332.53;;;7.96;88.10
72961;BME280;61141;46.204;19.774;2023-01-15T12:04:53;100314.47;;;8.07;87.21
72961;BME280;61141;46.204;19.774;2023-01-15T12:08:00;100319.66;;;8.12;86.96
72961;BME280;61141;46.204;19.774;2023-01-15T12:22:25;100295.41;;;8.57;86.32
72961;BME280;61141;46.204;19.774;2023-01-15T12:29:09;100288.94;;;8.46;87.35
72961;BME280;61141;46.204;19.774;2023-01-15T12:32:17;100280.59;;;8.39;86.89
72961;BME280;61141;46.204;19.774;2023-01-15T12:38:39;100252.72;;;8.30;87.53
72961;BME280;61141;46.204;19.774;2023-01-15T12:41:45;100253.13;;;8.32;87.50
72961;BME280;61141;46.204;19.774;2023-01-15T12:45:20;100240.66;;;8.31;87.56
72961;BME280;61141;46.204;19.774;2023-01-15T12:48:34;100247.41;;;8.56;86.80
72961;BME280;61141;46.204;19.774;2023-01-15T12:51:49;100258.13;;;8.46;87.09
72961;BME280;61141;46.204;19.774;2023-01-15T12:55:13;100250.41;;;8.32;88.04
72961;BME280;61141;46.204;19.774;2023-01-15T12:58:26;100250.72;;;8.46;87.79
72961;BME280;61141;46.204;19.774;2023-01-15T13:06:04;100232.41;;;8.66;86.36
72961;BME280;61141;46.204;19.774;2023-01-15T13:11:47;100224.00;;;8.74;86.82
72961;BME280;61141;46.204;19.774;2023-01-15T13:14:50;100225.03;;;8.85;86.24
72961;BME280;61141;46.204;19.774;2023-01-15T13:21:03;100220.06;;;8.53;87.73
72961;BME280;61141;46.204;19.774;2023-01-15T13:24:39;100213.72;;;8.49;87.34
72961;BME280;61141;46.204;19.774;2023-01-15T13:28:10;100216.37;;;8.64;86.67
72961;BME280;61141;46.204;19.774;2023-01-15T13:34:51;100205.31;;;8.57;87.04
72961;BME280;61141;46.204;19.774;2023-01-15T13:38:02;100199.94;;;8.26;88.87
72961;BME280;61141;46.204;19.774;2023-01-15T13:41:07;100183.78;;;8.33;88.80
72961;BME280;61141;46.204;19.774;2023-01-15T13:44:21;100191.59;;;8.35;88.95
72961;BME280;61141;46.204;19.774;2023-01-15T13:47:26;100184.81;;;8.28;89.38
72961;BME280;61141;46.204;19.774;2023-01-15T13:50:33;100190.19;;;8.25;89.87
72961;BME280;61141;46.204;19.774;2023-01-15T13:53:44;100186.84;;;8.32;89.84
72961;BME280;61141;46.204;19.774;2023-01-15T13:56:47;100194.19;;;8.27;90.56
72961;BME280;61141;46.204;19.774;2023-01-15T13:59:50;100193.97;;;8.20;91.28
72961;BME280;61141;46.204;19.774;2023-01-15T14:02:56;100187.28;;;8.18;91.77
72961;BME280;61141;46.204;19.774;2023-01-15T14:06:02;100185.22;;;8.11;91.49
72961;BME280;61141;46.204;19.774;2023-01-15T14:09:09;100185.94;;;8.08;91.52
72961;BME280;61141;46.204;19.774;2023-01-15T14:28:51;100175.66;;;8.02;92.38
72961;BME280;61141;46.204;19.774;2023-01-15T14:32:10;100171.75;;;7.84;93.17
72961;BME280;61141;46.204;19.774;2023-01-15T14:35:21;100179.50;;;7.66;94.34
72961;BME280;61141;46.204;19.774;2023-01-15T14:38:26;100158.81;;;7.65;94.25
72961;BME280;61141;46.204;19.774;2023-01-15T14:41:34;100164.81;;;7.55;94.75
72961;BME280;61141;46.204;19.774;2023-01-15T14:45:04;100163.97;;;7.51;94.99
72961;BME280;61141;46.204;19.774;2023-01-15T14:51:33;100165.87;;;7.35;95.83
72961;BME280;61141;46.204;19.774;2023-01-15T14:54:47;100164.22;;;7.30;95.91
72961;BME280;61141;46.204;19.774;2023-01-15T14:58:43;100159.22;;;7.17;96.72
72961;BME280;61141;46.204;19.774;2023-01-15T15:04:44;100146.53;;;6.93;97.97
72961;BME280;61141;46.204;19.774;2023-01-15T15:07:50;100139.66;;;6.83;98.36
72961;BME280;61141;46.204;19.774;2023-01-15T15:10:55;100136.63;;;6.85;98.83
72961;BME280;61141;46.204;19.774;2023-01-15T15:14:00;100130.88;;;6.74;99.19
72961;BME280;61141;46.204;19.774;2023-01-15T15:17:16;100126.03;;;6.68;99.64
72961;BME280;61141;46.204;19.774;2023-01-15T15:23:41;100130.66;;;6.52;100.00
72961;BME280;61141;46.204;19.774;2023-01-15T15:26:45;100123.41;;;6.43;100.00
72961;BME280;61141;46.204;19.774;2023-01-15T15:29:49;100135.78;;;6.41;100.00
72961;BME280;61141;46.204;19.774;2023-01-15T15:32:52;100128.31;;;6.38;100.00
72961;BME280;61141;46.204;19.774;2023-01-15T15:35:56;100125.25;;;6.39;100.00
72961;BME280;61141;46.204;19.774;2023-01-15T15:39:03;100128.13;;;6.31;100.00
72961;BME280;61141;46.204;19.774;2023-01-15T15:42:15;100142.16;;;6.33;100.00
72961;BME280;61141;46.204;19.774;2023-01-15T15:45:53;100130.78;;;6.15;100.00
72961;BME280;61141;46.204;19.774;2023-01-15T15:49:15;100132.75;;;6.03;100.00
72961;BME280;61141;46.204;19.774;2023-01-15T15:52:20;100136.97;;;5.88;100.00
72961;BME280;61141;46.204;19.774;2023-01-15T15:55:40;100143.62;;;5.78;100.00
72961;BME280;61141;46.204;19.774;2023-01-15T15:58:45;100128.37;;;5.62;100.00
72961;BME280;61141;46.204;19.774;2023-01-15T16:01:48;100123.84;;;5.66;100.00
72961;BME280;61141;46.204;19.774;2023-01-15T16:04:54;100123.72;;;5.62;100.00
72961;BME280;61141;46.204;19.774;2023-01-15T16:08:17;100115.03;;;5.57;100.00
72961;BME280;61141;46.204;19.774;2023-01-15T16:11:23;100109.47;;;5.53;100.00
72961;BME280;61141;46.204;19.774;2023-01-15T16:14:27;100103.72;;;5.43;100.00
72961;BME280;61141;46.204;19.774;2023-01-15T16:17:32;100097.03;;;5.40;100.00
72961;BME280;61141;46.204;19.774;2023-01-15T16:20:35;100093.97;;;5.54;100.00
72961;BME280;61141;46.204;19.774;2023-01-15T16:23:38;100095.56;;;5.55;100.00
72961;BME280;61141;46.204;19.774;2023-01-15T16:26:45;100092.72;;;5.63;100.00
72961;BME280;61141;46.204;19.774;2023-01-15T16:29:50;100085.03;;;5.53;100.00
72961;BME280;61141;46.204;19.774;2023-01-15T16:33:04;100099.03;;;5.67;100.00
72961;BME280;61141;46.204;19.774;2023-01-15T16:36:08;100093.97;;;5.66;100.00
72961;BME280;61141;46.204;19.774;2023-01-15T16:42:34;100088.84;;;5.64;100.00
72961;BME280;61141;46.204;19.774;2023-01-15T16:52:35;100083.72;;;5.75;100.00
72961;BME280;61141;46.204;19.774;2023-01-15T16:55:46;100090.31;;;5.74;100.00
72961;BME280;61141;46.204;19.774;2023-01-15T16:58:50;100090.78;;;5.64;100.00
72961;BME280;61141;46.204;19.774;2023-01-15T17:02:04;100083.53;;;5.68;100.00
72961;BME280;61141;46.204;19.774;2023-01-15T17:05:23;100075.03;;;5.69;100.00
72961;BME280;61141;46.204;19.774;2023-01-15T17:08:36;100080.59;;;5.61;100.00
72961;BME280;61141;46.204;19.774;2023-01-15T17:11:48;100075.63;;;5.63;100.00
72961;BME280;61141;46.204;19.774;2023-01-15T17:14:57;100085.75;;;5.78;100.00
72961;BME280;61141;46.204;19.774;2023-01-15T17:18:19;100087.94;;;5.72;100.00
72961;BME280;61141;46.204;19.774;2023-01-15T17:21:23;100084.78;;;5.70;100.00
72961;BME280;61141;46.204;19.774;2023-01-15T17:24:31;100083.75;;;5.87;100.00
72961;BME280;61141;46.204;19.774;2023-01-15T17:27:34;100080.34;;;5.78;100.00
72961;BME280;61141;46.204;19.774;2023-01-15T17:30:39;100082.16;;;5.74;100.00
72961;BME280;61141;46.204;19.774;2023-01-15T17:33:43;100080.00;;;5.79;100.00
72961;BME280;61141;46.204;19.774;2023-01-15T17:36:46;100078.09;;;5.68;100.00
72961;BME280;61141;46.204;19.774;2023-01-15T17:39:50;100072.44;;;5.85;100.00
72961;BME280;61141;46.204;19.774;2023-01-15T17:42:53;100077.50;;;5.86;100.00
72961;BME280;61141;46.204;19.774;2023-01-15T17:45:56;100063.78;;;5.83;100.00
72961;BME280;61141;46.204;19.774;2023-01-15T17:48:59;100066.31;;;5.76;100.00
72961;BME280;61141;46.204;19.774;2023-01-15T17:52:04;100062.00;;;5.75;100.00
72961;BME280;61141;46.204;19.774;2023-01-15T17:55:15;100063.00;;;5.82;100.00
72961;BME280;61141;46.204;19.774;2023-01-15T17:58:38;100069.56;;;5.81;100.00